sensor_id;sensor_type;location;lat;lon;timestamp;pressure;altitude;pressure_sealevel;temperature;humidity
68634;BME280;55625;47.072;22.192;2023-07-29T00:01:02;99333.84;;;19.03;100.00
68634;BME280;55625;47.072;22.192;2023-07-29T00:03:28;99337.75;;;18.95;100.00
68634;BME280;55625;47.072;22.192;2023-07-29T00:05:56;99327.03;;;18.95;100.00
68634;BME280;55625;47.072;22.192;2023-07-29T00:08:22;99330.44;;;18.93;98.94
68634;BME280;55625;47.072;22.192;2023-07-29T00:10:47;99326.50;;;18.85;94.18
68634;BME280;55625;47.072;22.192;2023-07-29T00:13:13;99335.91;;;18.91;97.71
68634;BME280;55625;47.072;22.192;2023-07-29T00:15:39;99334.34;;;18.90;96.77
68634;BME280;55625;47.072;22.192;2023-07-29T00:18:05;99334.88;;;18.89;96.90
68634;BME280;55625;47.072;22.192;2023-07-29T00:20:30;99342.47;;;18.86;97.82
68634;BME280;55625;47.072;22.192;2023-07-29T00:22:56;99333.56;;;18.84;98.10
68634;BME280;55625;47.072;22.192;2023-07-29T00:25:24;99337.75;;;18.83;98.31
68634;BME280;55625;47.072;22.192;2023-07-29T00:27:49;99339.56;;;18.81;98.89
68634;BME280;55625;47.072;22.192;2023-07-29T00:30:15;99334.34;;;18.79;99.96
68634;BME280;55625;47.072;22.192;2023-07-29T00:32:41;99338.25;;;18.76;100.00
68634;BME280;55625;47.072;22.192;2023-07-29T00:35:07;99340.09;;;18.74;99.59
68634;BME280;55625;47.072;22.192;2023-07-29T00:37:33;99328.31;;;18.72;99.75
68634;BME280;55625;47.072;22.192;2023-07-29T00:39:59;99330.16;;;18.69;99.58
68634;BME280;55625;47.072;22.192;2023-07-29T00:42:25;99319.19;;;18.68;98.88
68634;BME280;55625;47.072;22.192;2023-07-29T00:44:51;99324.94;;;18.68;98.49
68634;BME280;55625;47.072;22.192;2023-07-29T00:47:17;99323.06;;;18.65;99.07
68634;BME280;55625;47.072;22.192;2023-07-29T00:49:44;99325.38;;;18.60;99.50
68634;BME280;55625;47.072;22.192;2023-07-29T00:52:11;99326.69;;;18.54;100.00
68634;BME280;55625;47.072;22.192;2023-07-29T00:54:39;99330.56;;;18.45;100.00
68634;BME280;55625;47.072;22.192;2023-07-29T00:57:08;99324.25;;;18.36;100.00
68634;BME280;55625;47.072;22.192;2023-07-29T00:59:36;99319.28;;;18.30;100.00
68634;BME280;55625;47.072;22.192;2023-07-29T01:02:02;99315.34;;;18.28;100.00
68634;BME280;55625;47.072;22.192;2023-07-29T01:04:28;99321.63;;;18.26;100.00
68634;BME280;55625;47.072;22.192;2023-07-29T01:07:20;99324.47;;;18.21;100.00
68634;BME280;55625;47.072;22.192;2023-07-29T01:13:37;99318.44;;;18.13;100.00
68634;BME280;55625;47.072;22.192;2023-07-29T01:16:16;99310.88;;;18.10;100.00
68634;BME280;55625;47.072;22.192;2023-07-29T01:18:47;99312.13;;;18.04;100.00
68634;BME280;55625;47.072;22.192;2023-07-29T01:21:14;99312.38;;;18.00;100.00
68634;BME280;55625;47.072;22.192;2023-07-29T01:23:41;99314.72;;;17.96;100.00
68634;BME280;55625;47.072;22.192;2023-07-29T01:26:07;99308.69;;;17.94;100.00
68634;BME280;55625;47.072;22.192;2023-07-29T01:28:32;99298.25;;;17.91;100.00
68634;BME280;55625;47.072;22.192;2023-07-29T01:31:07;99302.66;;;17.86;100.00
68634;BME280;55625;47.072;22.192;2023-07-29T01:33:57;99299.25;;;17.82;100.00
68634;BME280;55625;47.072;22.192;2023-07-29T01:36:28;99300.00;;;17.77;100.00
68634;BME280;55625;47.072;22.192;2023-07-29T01:38:55;99304.66;;;17.75;100.00
68634;BME280;55625;47.072;22.192;2023-07-29T01:41:23;99305.69;;;17.72;98.98
68634;BME280;55625;47.072;22.192;2023-07-29T01:43:50;99302.81;;;17.72;96.64
68634;BME280;55625;47.072;22.192;2023-07-29T01:46:17;99298.44;;;17.76;93.65
68634;BME280;55625;47.072;22.192;2023-07-29T01:48:43;99304.47;;;17.84;94.28
68634;BME280;55625;47.072;22.192;2023-07-29T01:51:11;99298.75;;;17.84;95.30
68634;BME280;55625;47.072;22.192;2023-07-29T01:53:37;99311.00;;;17.84;94.98
68634;BME280;55625;47.072;22.192;2023-07-29T01:56:03;99301.34;;;17.82;92.03
68634;BME280;55625;47.072;22.192;2023-07-29T01:58:29;99301.88;;;17.86;93.68
68634;BME280;55625;47.072;22.192;2023-07-29T02:00:55;99304.50;;;17.89;95.97
68634;BME280;55625;47.072;22.192;2023-07-29T02:03:21;99300.84;;;17.89;95.38
68634;BME280;55625;47.072;22.192;2023-07-29T02:05:47;99298.50;;;17.87;96.06
68634;BME280;55625;47.072;22.192;2023-07-29T02:08:13;99303.44;;;17.87;96.60
68634;BME280;55625;47.072;22.192;2023-07-29T02:10:39;99310.75;;;17.88;97.68
68634;BME280;55625;47.072;22.192;2023-07-29T02:13:05;99310.75;;;17.88;97.96
68634;BME280;55625;47.072;22.192;2023-07-29T02:15:31;99319.63;;;17.90;98.25
68634;BME280;55625;47.072;22.192;2023-07-29T02:17:57;99320.44;;;17.90;98.21
68634;BME280;55625;47.072;22.192;2023-07-29T02:20:24;99318.34;;;17.91;97.65
68634;BME280;55625;47.072;22.192;2023-07-29T02:22:50;99314.16;;;17.92;97.97
68634;BME280;55625;47.072;22.192;2023-07-29T02:25:16;99312.31;;;17.89;98.32
68634;BME280;55625;47.072;22.192;2023-07-29T02:27:42;99317.53;;;17.85;98.25
68634;BME280;55625;47.072;22.192;2023-07-29T02:30:08;99318.84;;;17.84;99.27
68634;BME280;55625;47.072;22.192;2023-07-29T02:32:35;99311.25;;;17.81;99.87
68634;BME280;55625;47.072;22.192;2023-07-29T02:35:01;99315.16;;;17.78;100.00
68634;BME280;55625;47.072;22.192;2023-07-29T02:37:27;99311.50;;;17.77;96.60
68634;BME280;55625;47.072;22.192;2023-07-29T02:39:53;99309.16;;;17.81;96.24
68634;BME280;55625;47.072;22.192;2023-07-29T02:42:19;99320.16;;;17.88;97.85
68634;BME280;55625;47.072;22.192;2023-07-29T02:44:45;99309.72;;;17.91;98.78
68634;BME280;55625;47.072;22.192;2023-07-29T02:47:10;99311.81;;;17.90;97.52
68634;BME280;55625;47.072;22.192;2023-07-29T02:49:36;99327.22;;;17.93;99.25
68634;BME280;55625;47.072;22.192;2023-07-29T02:52:02;99318.59;;;17.93;97.96
68634;BME280;55625;47.072;22.192;2023-07-29T02:54:28;99320.44;;;17.96;97.17
68634;BME280;55625;47.072;22.192;2023-07-29T02:56:54;99325.16;;;17.99;96.28
68634;BME280;55625;47.072;22.192;2023-07-29T02:59:20;99320.19;;;17.99;94.47
68634;BME280;55625;47.072;22.192;2023-07-29T03:01:46;99329.88;;;18.02;93.59
68634;BME280;55625;47.072;22.192;2023-07-29T03:04:12;99324.41;;;18.04;92.74
68634;BME280;55625;47.072;22.192;2023-07-29T03:06:41;99318.69;;;18.10;92.73
68634;BME280;55625;47.072;22.192;2023-07-29T03:09:08;99325.75;;;18.14;94.55
68634;BME280;55625;47.072;22.192;2023-07-29T03:11:34;99324.72;;;18.17;94.55
68634;BME280;55625;47.072;22.192;2023-07-29T03:13:59;99327.88;;;18.19;94.90
68634;BME280;55625;47.072;22.192;2023-07-29T03:16:26;99329.72;;;18.22;95.59
68634;BME280;55625;47.072;22.192;2023-07-29T03:18:52;99325.81;;;18.25;95.79
68634;BME280;55625;47.072;22.192;2023-07-29T03:21:17;99327.63;;;18.28;97.25
68634;BME280;55625;47.072;22.192;2023-07-29T03:23:43;99333.13;;;18.32;97.02
68634;BME280;55625;47.072;22.192;2023-07-29T03:26:09;99337.84;;;18.35;98.59
68634;BME280;55625;47.072;22.192;2023-07-29T03:28:41;99336.53;;;18.36;99.02
68634;BME280;55625;47.072;22.192;2023-07-29T03:31:07;99339.19;;;18.40;99.85
68634;BME280;55625;47.072;22.192;2023-07-29T03:33:33;99338.16;;;18.43;100.00
68634;BME280;55625;47.072;22.192;2023-07-29T03:35:59;99342.84;;;18.46;100.00
68634;BME280;55625;47.072;22.192;2023-07-29T03:38:25;99341.31;;;18.50;100.00
68634;BME280;55625;47.072;22.192;2023-07-29T03:40:51;99342.88;;;18.51;100.00
68634;BME280;55625;47.072;22.192;2023-07-29T03:43:19;99339.47;;;18.53;100.00
68634;BME280;55625;47.072;22.192;2023-07-29T03:45:44;99332.44;;;18.54;100.00
68634;BME280;55625;47.072;22.192;2023-07-29T03:48:10;99343.41;;;18.55;100.00
68634;BME280;55625;47.072;22.192;2023-07-29T03:50:36;99338.44;;;18.56;100.00
68634;BME280;55625;47.072;22.192;2023-07-29T03:53:03;99347.06;;;18.56;100.00
68634;BME280;55625;47.072;22.192;2023-07-29T03:55:30;99345.50;;;18.55;100.00
68634;BME280;55625;47.072;22.192;2023-07-29T03:58:00;99347.31;;;18.58;100.00
68634;BME280;55625;47.072;22.192;2023-07-29T04:00:26;99350.75;;;18.62;100.00
68634;BME280;55625;47.072;22.192;2023-07-29T04:02:52;99349.72;;;18.65;100.00
68634;BME280;55625;47.072;22.192;2023-07-29T04:05:19;99347.09;;;18.67;100.00
68634;BME280;55625;47.072;22.192;2023-07-29T04:07:45;99355.50;;;18.71;100.00
68634;BME280;55625;47.072;22.192;2023-07-29T04:10:11;99360.22;;;18.74;100.00
68634;BME280;55625;47.072;22.192;2023-07-29T04:12:37;99357.59;;;18.76;100.00
68634;BME280;55625;47.072;22.192;2023-07-29T04:15:03;99349.00;;;18.81;100.00
68634;BME280;55625;47.072;22.192;2023-07-29T04:17:29;99360.22;;;18.85;99.33
68634;BME280;55625;47.072;22.192;2023-07-29T04:19:55;99364.69;;;18.91;98.59
68634;BME280;55625;47.072;22.192;2023-07-29T04:22:20;99367.28;;;18.95;98.29
68634;BME280;55625;47.072;22.192;2023-07-29T04:24:46;99370.44;;;18.97;98.48
68634;BME280;55625;47.072;22.192;2023-07-29T04:27:12;99369.94;;;18.99;98.39
68634;BME280;55625;47.072;22.192;2023-07-29T04:29:38;99367.59;;;19.03;98.48
68634;BME280;55625;47.072;22.192;2023-07-29T04:32:04;99372.56;;;19.08;98.36
68634;BME280;55625;47.072;22.192;2023-07-29T04:34:31;99373.09;;;19.12;98.61
68634;BME280;55625;47.072;22.192;2023-07-29T04:36:57;99373.09;;;19.17;98.37
68634;BME280;55625;47.072;22.192;2023-07-29T04:39:23;99372.56;;;19.19;98.98
68634;BME280;55625;47.072;22.192;2023-07-29T04:41:49;99371.25;;;19.26;98.55
68634;BME280;55625;47.072;22.192;2023-07-29T04:44:15;99378.59;;;19.32;100.00
68634;BME280;55625;47.072;22.192;2023-07-29T04:46:40;99375.97;;;19.34;99.54
68634;BME280;55625;47.072;22.192;2023-07-29T04:49:06;99372.59;;;19.36;99.17
68634;BME280;55625;47.072;22.192;2023-07-29T04:51:32;99376.50;;;19.38;99.18
68634;BME280;55625;47.072;22.192;2023-07-29T04:53:59;99371.00;;;19.40;98.77
68634;BME280;55625;47.072;22.192;2023-07-29T04:56:25;99376.78;;;19.35;98.85
68634;BME280;55625;47.072;22.192;2023-07-29T04:58:51;99376.50;;;19.33;99.14
68634;BME280;55625;47.072;22.192;2023-07-29T05:01:18;99386.97;;;19.30;99.02
68634;BME280;55625;47.072;22.192;2023-07-29T05:03:44;99386.97;;;19.30;98.96
68634;BME280;55625;47.072;22.192;2023-07-29T05:06:10;99391.41;;;19.37;98.56
68634;BME280;55625;47.072;22.192;2023-07-29T05:08:36;99390.38;;;19.45;98.01
68634;BME280;55625;47.072;22.192;2023-07-29T05:11:02;99394.03;;;19.46;98.29
68634;BME280;55625;47.072;22.192;2023-07-29T05:13:27;99396.63;;;19.49;98.54
68634;BME280;55625;47.072;22.192;2023-07-29T05:15:53;99396.69;;;19.66;97.48
68634;BME280;55625;47.072;22.192;2023-07-29T05:18:20;99395.09;;;19.76;96.74
68634;BME280;55625;47.072;22.192;2023-07-29T05:20:47;99406.06;;;19.83;96.20
68634;BME280;55625;47.072;22.192;2023-07-29T05:23:13;99398.22;;;19.84;95.35
68634;BME280;55625;47.072;22.192;2023-07-29T05:25:38;99407.66;;;19.90;94.74
68634;BME280;55625;47.072;22.192;2023-07-29T05:28:04;99410.47;;;20.07;94.36
68634;BME280;55625;47.072;22.192;2023-07-29T05:30:32;99412.78;;;20.31;92.41
68634;BME280;55625;47.072;22.192;2023-07-29T05:33:00;99404.63;;;20.46;92.25
68634;BME280;55625;47.072;22.192;2023-07-29T05:35:26;99395.91;;;20.63;90.73
68634;BME280;55625;47.072;22.192;2023-07-29T05:37:52;99404.47;;;20.80;91.76
68634;BME280;55625;47.072;22.192;2023-07-29T05:40:18;99401.78;;;20.93;91.24
68634;BME280;55625;47.072;22.192;2023-07-29T05:42:44;99399.66;;;20.99;89.60
68634;BME280;55625;47.072;22.192;2023-07-29T05:45:11;99405.69;;;20.95;89.55
68634;BME280;55625;47.072;22.192;2023-07-29T05:47:37;99402.03;;;20.95;89.47
68634;BME280;55625;47.072;22.192;2023-07-29T05:50:04;99401.22;;;21.00;89.11
68634;BME280;55625;47.072;22.192;2023-07-29T05:52:33;99396.50;;;20.97;87.71
68634;BME280;55625;47.072;22.192;2023-07-29T05:55:00;99409.03;;;21.05;87.13
68634;BME280;55625;47.072;22.192;2023-07-29T05:57:28;99402.66;;;21.23;86.42
68634;BME280;55625;47.072;22.192;2023-07-29T05:59:54;99412.38;;;21.56;83.81
68634;BME280;55625;47.072;22.192;2023-07-29T06:02:19;99411.59;;;21.85;83.04
68634;BME280;55625;47.072;22.192;2023-07-29T06:04:45;99402.34;;;21.92;79.21
68634;BME280;55625;47.072;22.192;2023-07-29T06:07:11;99400.94;;;22.05;80.40
68634;BME280;55625;47.072;22.192;2023-07-29T06:09:37;99415.38;;;22.29;79.48
68634;BME280;55625;47.072;22.192;2023-07-29T06:12:03;99411.84;;;22.60;79.05
68634;BME280;55625;47.072;22.192;2023-07-29T06:14:29;99413.31;;;22.91;77.34
68634;BME280;55625;47.072;22.192;2023-07-29T06:16:55;99405.09;;;23.14;74.31
68634;BME280;55625;47.072;22.192;2023-07-29T06:19:21;99401.31;;;23.38;72.54
68634;BME280;55625;47.072;22.192;2023-07-29T06:21:46;99405.50;;;23.56;70.32
68634;BME280;55625;47.072;22.192;2023-07-29T06:24:12;99408.13;;;23.60;70.03
68634;BME280;55625;47.072;22.192;2023-07-29T06:26:38;99408.78;;;23.66;71.58
68634;BME280;55625;47.072;22.192;2023-07-29T06:29:04;99406.75;;;23.93;71.05
68634;BME280;55625;47.072;22.192;2023-07-29T06:31:30;99401.97;;;24.08;66.81
68634;BME280;55625;47.072;22.192;2023-07-29T06:33:58;99411.69;;;24.24;65.57
68634;BME280;55625;47.072;22.192;2023-07-29T06:36:24;99416.97;;;24.39;62.60
68634;BME280;55625;47.072;22.192;2023-07-29T06:38:50;99406.16;;;24.53;63.50
68634;BME280;55625;47.072;22.192;2023-07-29T06:41:15;99407.78;;;24.74;65.23
68634;BME280;55625;47.072;22.192;2023-07-29T06:43:42;99410.66;;;25.01;62.64
68634;BME280;55625;47.072;22.192;2023-07-29T06:46:08;99408.81;;;25.24;62.24
68634;BME280;55625;47.072;22.192;2023-07-29T06:48:33;99415.63;;;25.27;62.06
68634;BME280;55625;47.072;22.192;2023-07-29T06:50:59;99413.94;;;25.31;63.41
68634;BME280;55625;47.072;22.192;2023-07-29T06:53:27;99414.13;;;25.33;63.60
68634;BME280;55625;47.072;22.192;2023-07-29T06:55:53;99422.22;;;25.27;62.13
68634;BME280;55625;47.072;22.192;2023-07-29T06:58:19;99411.00;;;25.45;61.94
68634;BME280;55625;47.072;22.192;2023-07-29T07:00:45;99413.09;;;25.78;61.00
68634;BME280;55625;47.072;22.192;2023-07-29T07:03:11;99414.91;;;26.10;60.19
68634;BME280;55625;47.072;22.192;2023-07-29T07:05:37;99410.09;;;26.41;56.80
68634;BME280;55625;47.072;22.192;2023-07-29T07:08:03;99411.66;;;26.42;55.71
68634;BME280;55625;47.072;22.192;2023-07-29T07:10:28;99411.13;;;26.51;52.95
68634;BME280;55625;47.072;22.192;2023-07-29T07:12:55;99403.59;;;26.55;53.02
68634;BME280;55625;47.072;22.192;2023-07-29T07:15:20;99407.97;;;26.77;53.01
68634;BME280;55625;47.072;22.192;2023-07-29T07:17:46;99409.94;;;26.82;53.31
68634;BME280;55625;47.072;22.192;2023-07-29T07:20:12;99411.84;;;27.08;52.00
68634;BME280;55625;47.072;22.192;2023-07-29T07:22:38;99409.31;;;27.12;51.18
68634;BME280;55625;47.072;22.192;2023-07-29T07:25:05;99412.06;;;27.18;50.92
68634;BME280;55625;47.072;22.192;2023-07-29T07:27:31;99410.56;;;27.40;51.82
68634;BME280;55625;47.072;22.192;2023-07-29T07:29:56;99409.41;;;27.35;49.42
68634;BME280;55625;47.072;22.192;2023-07-29T07:32:22;99408.44;;;27.33;50.23
68634;BME280;55625;47.072;22.192;2023-07-29T07:34:48;99413.66;;;27.27;52.39
68634;BME280;55625;47.072;22.192;2023-07-29T07:37:14;99407.88;;;27.49;49.76
68634;BME280;55625;47.072;22.192;2023-07-29T07:39:40;99411.16;;;27.53;48.67
68634;BME280;55625;47.072;22.192;2023-07-29T07:42:06;99403.66;;;27.66;51.13
68634;BME280;55625;47.072;22.192;2023-07-29T07:44:32;99401.31;;;27.79;50.57
68634;BME280;55625;47.072;22.192;2023-07-29T07:46:57;99403.69;;;27.96;48.94
68634;BME280;55625;47.072;22.192;2023-07-29T07:49:23;99402.47;;;28.14;48.65
68634;BME280;55625;47.072;22.192;2023-07-29T07:51:49;99393.16;;;28.24;50.77
68634;BME280;55625;47.072;22.192;2023-07-29T07:54:15;99397.25;;;28.28;49.08
68634;BME280;55625;47.072;22.192;2023-07-29T07:56:42;99400.53;;;28.40;49.30
68634;BME280;55625;47.072;22.192;2023-07-29T07:59:08;99403.81;;;28.59;50.31
68634;BME280;55625;47.072;22.192;2023-07-29T08:01:40;99391.56;;;28.53;49.15
68634;BME280;55625;47.072;22.192;2023-07-29T08:04:06;99400.28;;;28.68;49.44
68634;BME280;55625;47.072;22.192;2023-07-29T08:06:33;99405.31;;;28.83;50.32
68634;BME280;55625;47.072;22.192;2023-07-29T08:08:59;99395.78;;;28.83;48.24
68634;BME280;55625;47.072;22.192;2023-07-29T08:11:25;99394.94;;;28.97;49.45
68634;BME280;55625;47.072;22.192;2023-07-29T08:13:51;99386.91;;;29.05;48.14
68634;BME280;55625;47.072;22.192;2023-07-29T08:16:17;99395.50;;;29.11;48.73
68634;BME280;55625;47.072;22.192;2023-07-29T08:18:43;99387.44;;;29.19;47.22
68634;BME280;55625;47.072;22.192;2023-07-29T08:21:09;99389.47;;;29.09;47.36
68634;BME280;55625;47.072;22.192;2023-07-29T08:23:36;99394.03;;;29.27;48.33
68634;BME280;55625;47.072;22.192;2023-07-29T08:26:04;99394.09;;;29.52;46.32
68634;BME280;55625;47.072;22.192;2023-07-29T08:28:32;99395.25;;;29.57;45.91
68634;BME280;55625;47.072;22.192;2023-07-29T08:30:58;99398.66;;;29.71;47.75
68634;BME280;55625;47.072;22.192;2023-07-29T08:33:25;99387.31;;;29.75;46.80
68634;BME280;55625;47.072;22.192;2023-07-29T08:35:52;99394.00;;;29.92;48.34
68634;BME280;55625;47.072;22.192;2023-07-29T08:38:19;99396.81;;;30.08;47.23
68634;BME280;55625;47.072;22.192;2023-07-29T08:43:20;99387.09;;;30.05;46.19
68634;BME280;55625;47.072;22.192;2023-07-29T08:45:51;99393.13;;;29.99;45.86
68634;BME280;55625;47.072;22.192;2023-07-29T08:48:26;99394.69;;;30.25;46.11
68634;BME280;55625;47.072;22.192;2023-07-29T08:50:54;99385.66;;;30.14;45.40
68634;BME280;55625;47.072;22.192;2023-07-29T08:53:21;99392.38;;;30.24;45.31
68634;BME280;55625;47.072;22.192;2023-07-29T08:55:47;99384.47;;;30.34;43.72
68634;BME280;55625;47.072;22.192;2023-07-29T08:58:14;99383.78;;;30.43;44.34
68634;BME280;55625;47.072;22.192;2023-07-29T09:00:40;99389.59;;;30.68;45.51
68634;BME280;55625;47.072;22.192;2023-07-29T09:03:06;99384.31;;;31.01;46.95
68634;BME280;55625;47.072;22.192;2023-07-29T09:05:34;99378.34;;;31.09;45.20
68634;BME280;55625;47.072;22.192;2023-07-29T09:08:02;99384.16;;;30.99;45.48
68634;BME280;55625;47.072;22.192;2023-07-29T09:10:28;99379.66;;;30.98;44.27
68634;BME280;55625;47.072;22.192;2023-07-29T09:12:55;99374.84;;;30.93;43.02
68634;BME280;55625;47.072;22.192;2023-07-29T09:15:29;99371.56;;;30.89;44.59
68634;BME280;55625;47.072;22.192;2023-07-29T09:17:57;99380.88;;;30.95;44.88
68634;BME280;55625;47.072;22.192;2023-07-29T09:20:27;99375.91;;;31.15;43.35
68634;BME280;55625;47.072;22.192;2023-07-29T09:22:58;99378.69;;;31.13;45.65
68634;BME280;55625;47.072;22.192;2023-07-29T09:25:29;99373.38;;;31.02;43.73
68634;BME280;55625;47.072;22.192;2023-07-29T09:28:02;99370.53;;;30.94;44.51
68634;BME280;55625;47.072;22.192;2023-07-29T09:30:32;99364.97;;;31.15;45.17
68634;BME280;55625;47.072;22.192;2023-07-29T09:32:58;99368.53;;;31.41;44.22
68634;BME280;55625;47.072;22.192;2023-07-29T09:35:28;99368.16;;;31.54;43.64
68634;BME280;55625;47.072;22.192;2023-07-29T09:37:54;99366.94;;;31.57;43.91
68634;BME280;55625;47.072;22.192;2023-07-29T09:40:19;99373.19;;;31.00;43.41
68634;BME280;55625;47.072;22.192;2023-07-29T09:42:50;99367.63;;;30.94;45.31
68634;BME280;55625;47.072;22.192;2023-07-29T09:45:36;99369.81;;;31.03;44.17
68634;BME280;55625;47.072;22.192;2023-07-29T09:48:04;99367.31;;;31.17;45.14
68634;BME280;55625;47.072;22.192;2023-07-29T09:50:36;99363.25;;;31.30;43.03
68634;BME280;55625;47.072;22.192;2023-07-29T09:53:02;99360.22;;;31.47;44.74
68634;BME280;55625;47.072;22.192;2023-07-29T09:55:29;99361.69;;;31.29;43.42
68634;BME280;55625;47.072;22.192;2023-07-29T09:58:00;99364.56;;;31.46;43.67
68634;BME280;55625;47.072;22.192;2023-07-29T10:00:32;99357.25;;;31.64;43.38
68634;BME280;55625;47.072;22.192;2023-07-29T10:02:58;99354.22;;;31.81;43.77
68634;BME280;55625;47.072;22.192;2023-07-29T10:05:28;99363.09;;;31.91;43.45
68634;BME280;55625;47.072;22.192;2023-07-29T10:07:56;99356.47;;;32.10;42.15
68634;BME280;55625;47.072;22.192;2023-07-29T10:10:22;99350.28;;;31.96;42.44
68634;BME280;55625;47.072;22.192;2023-07-29T10:12:49;99347.09;;;31.75;42.91
68634;BME280;55625;47.072;22.192;2023-07-29T10:15:15;99343.50;;;31.67;42.41
68634;BME280;55625;47.072;22.192;2023-07-29T10:17:41;99344.84;;;31.56;41.64
68634;BME280;55625;47.072;22.192;2023-07-29T10:20:11;99355.66;;;31.09;43.23
68634;BME280;55625;47.072;22.192;2023-07-29T10:22:41;99352.72;;;31.27;44.04
68634;BME280;55625;47.072;22.192;2023-07-29T10:25:16;99353.97;;;31.60;43.37
68634;BME280;55625;47.072;22.192;2023-07-29T10:27:53;99352.03;;;31.45;42.23
68634;BME280;55625;47.072;22.192;2023-07-29T10:30:21;99352.34;;;30.96;44.67
68634;BME280;55625;47.072;22.192;2023-07-29T10:32:48;99353.47;;;31.00;42.82
68634;BME280;55625;47.072;22.192;2023-07-29T10:35:15;99345.66;;;31.66;44.96
68634;BME280;55625;47.072;22.192;2023-07-29T10:37:42;99339.63;;;32.01;42.28
68634;BME280;55625;47.072;22.192;2023-07-29T10:40:10;99342.53;;;31.55;41.89
68634;BME280;55625;47.072;22.192;2023-07-29T10:43:12;99338.94;;;30.75;42.37
68634;BME280;55625;47.072;22.192;2023-07-29T10:45:41;99343.56;;;30.78;45.12
68634;BME280;55625;47.072;22.192;2023-07-29T10:48:12;99338.22;;;31.29;43.82
68634;BME280;55625;47.072;22.192;2023-07-29T10:50:39;99337.44;;;31.55;44.50
68634;BME280;55625;47.072;22.192;2023-07-29T10:53:05;99334.59;;;31.74;41.76
68634;BME280;55625;47.072;22.192;2023-07-29T10:55:35;99335.84;;;31.17;42.95
68634;BME280;55625;47.072;22.192;2023-07-29T11:00:35;99321.50;;;31.22;43.08
68634;BME280;55625;47.072;22.192;2023-07-29T11:03:13;99327.41;;;31.58;42.59
68634;BME280;55625;47.072;22.192;2023-07-29T11:05:49;99328.72;;;31.74;41.78
68634;BME280;55625;47.072;22.192;2023-07-29T11:11:08;99325.66;;;30.74;42.77
68634;BME280;55625;47.072;22.192;2023-07-29T11:13:38;99323.88;;;30.62;42.80
68634;BME280;55625;47.072;22.192;2023-07-29T11:16:05;99316.75;;;30.30;43.53
68634;BME280;55625;47.072;22.192;2023-07-29T11:18:34;99317.97;;;30.10;44.86
68634;BME280;55625;47.072;22.192;2023-07-29T11:21:02;99308.47;;;30.02;44.53
68634;BME280;55625;47.072;22.192;2023-07-29T11:23:34;99313.56;;;30.18;42.77
68634;BME280;55625;47.072;22.192;2023-07-29T11:26:01;99311.78;;;30.75;45.77
68634;BME280;55625;47.072;22.192;2023-07-29T11:28:28;99315.63;;;31.22;42.87
68634;BME280;55625;47.072;22.192;2023-07-29T11:30:55;99312.97;;;31.43;42.16
68634;BME280;55625;47.072;22.192;2023-07-29T11:33:26;99301.06;;;31.41;41.83
68634;BME280;55625;47.072;22.192;2023-07-29T11:35:54;99307.22;;;31.08;41.76
68634;BME280;55625;47.072;22.192;2023-07-29T11:38:22;99311.78;;;30.75;43.48
68634;BME280;55625;47.072;22.192;2023-07-29T11:41:03;99306.09;;;30.42;45.68
68634;BME280;55625;47.072;22.192;2023-07-29T11:43:29;99309.00;;;30.59;43.72
68634;BME280;55625;47.072;22.192;2023-07-29T11:45:55;99305.25;;;30.67;43.48
68634;BME280;55625;47.072;22.192;2023-07-29T11:48:32;99288.63;;;30.96;45.40
68634;BME280;55625;47.072;22.192;2023-07-29T11:50:58;99286.09;;;31.37;43.25
68634;BME280;55625;47.072;22.192;2023-07-29T11:53:28;99280.13;;;31.91;41.88
68634;BME280;55625;47.072;22.192;2023-07-29T11:55:55;99288.81;;;31.62;41.16
68634;BME280;55625;47.072;22.192;2023-07-29T11:58:21;99288.25;;;31.36;42.60
68634;BME280;55625;47.072;22.192;2023-07-29T12:00:47;99281.91;;;31.30;41.68
68634;BME280;55625;47.072;22.192;2023-07-29T12:03:14;99284.59;;;31.18;41.36
68634;BME280;55625;47.072;22.192;2023-07-29T12:05:42;99280.97;;;31.28;42.43
68634;BME280;55625;47.072;22.192;2023-07-29T12:08:08;99292.13;;;31.39;42.26
68634;BME280;55625;47.072;22.192;2023-07-29T12:10:35;99279.78;;;31.40;43.51
68634;BME280;55625;47.072;22.192;2023-07-29T12:13:02;99278.91;;;31.20;42.43
68634;BME280;55625;47.072;22.192;2023-07-29T12:15:29;99280.97;;;31.10;42.11
68634;BME280;55625;47.072;22.192;2023-07-29T12:17:57;99276.34;;;31.34;43.19
68634;BME280;55625;47.072;22.192;2023-07-29T12:20:24;99273.81;;;31.21;42.80
68634;BME280;55625;47.072;22.192;2023-07-29T12:22:55;99273.56;;;30.82;43.91
68634;BME280;55625;47.072;22.192;2023-07-29T12:25:22;99281.63;;;30.65;43.84
68634;BME280;55625;47.072;22.192;2023-07-29T12:27:48;99283.44;;;30.25;44.43
68634;BME280;55625;47.072;22.192;2023-07-29T12:30:14;99282.69;;;30.00;45.09
68634;BME280;55625;47.072;22.192;2023-07-29T12:32:47;99278.00;;;29.62;46.54
68634;BME280;55625;47.072;22.192;2023-07-29T12:35:13;99274.00;;;29.50;45.95
68634;BME280;55625;47.072;22.192;2023-07-29T12:37:39;99285.19;;;29.36;46.67
68634;BME280;55625;47.072;22.192;2023-07-29T12:42:49;99275.66;;;29.11;48.18
68634;BME280;55625;47.072;22.192;2023-07-29T12:45:16;99277.47;;;28.99;48.76
68634;BME280;55625;47.072;22.192;2023-07-29T12:47:43;99271.25;;;28.95;49.01
68634;BME280;55625;47.072;22.192;2023-07-29T12:50:09;99277.78;;;28.78;49.98
68634;BME280;55625;47.072;22.192;2023-07-29T12:52:35;99275.22;;;28.74;49.77
68634;BME280;55625;47.072;22.192;2023-07-29T12:55:01;99261.13;;;28.56;50.01
68634;BME280;55625;47.072;22.192;2023-07-29T12:57:27;99266.25;;;28.48;50.73
68634;BME280;55625;47.072;22.192;2023-07-29T12:59:53;99264.13;;;28.33;50.11
68634;BME280;55625;47.072;22.192;2023-07-29T13:02:18;99266.09;;;28.15;51.34